Friday, July 25, 2014
22:11 UTC
  |  Log In   |  Register Free
Airport Search:

Vidalia Regional Airport
(KVDI)

Vidalia Regional Airport Diagram
No Airport Diagram Available

FAA data valid effective July 24, 2014 until September 18, 2014 (unless otherwise noted).

 
 
 
 
 
 
 
 
 
 
 
 
 
 

Current Aviation Weather for Vidalia Regional Airport (KVDI)

The most recent METAR observation for KVDI was updated at: 2135 UTC
METAR Summary (Translated METAR)
KVDI
252135Z AUTO 26008KT 10SM 33/21 A2996 RMK AO2
KTBR
(36.6 nm NE from KVDI)
252135Z AUTO 00000KT 10SM CLR 33/24 A2995 RMK AO2 T03330239 TSNO
TAF
No TAF information found within 50 nm of KVDI
  Airport Weather Conditions for KVDI

 Current Weather at VDI
91° F

West winds at 6.9 mph
VDI NOAA Radar

Pressure: 29.95 in
Humidity: 49%
Wind: West at 6.9 MPH (6 KT)
Dew Point: 69.8°F
Visibility: 10.00 mi


Airport Weather Forecast for KVDI

Translated METAR and TAF for KVDI
Translated METAR for KVDI (2204 UTC 25 July 2014)
found at http://aviationweather.gov/adds/metars/
 
METAR text: KVDI 252155Z AUTO 25006KT 10SM 33/21 A2997 RMK AO2
Conditions at: KVDI (VIDALIA MUNI , GA, US) observed 2155 UTC 25 July 2014
Temperature: 33.0°C (91°F)
Dewpoint: 21.0°C (70°F) [RH = 49%]
Pressure (altimeter): 29.97 inches Hg (1015.0 mb)
Winds: from the WSW (250 degrees) at 7 MPH (6 knots; 3.1 m/s)
Visibility: 10 or more miles (16+ km)
Ceiling: unknown
Clouds: missing
Weather: automated observation with no human augmentation;
there may or may not be significant weather present at this time
Translated TAF for KVDI

There is no translated TAF available for this airport

Find All Airport Services Find A Hotel Find A Rental Car Find A Golf Course Find A Restaurant $100 Hamburger



FBO's on the Field
FBO Company Facility Photos Services Transportation Aviation Fuel Prices: Prices include tax
Catering Weather Repair Courtesy Rental Type 100LL JetA JetA+ MOGAS 8087
 
Vidalia Regional Airport

This FBO has not yet been rated
FS:Phillips66
Last Updated: Jun-30
Login to update fuel prices
SS:
Contact Vidalia Regional AirportMore FBO Information
 
Add another FBO Facility Photos Catering Weather Repair Courtesy Rental Type 100LL JetA JetA+ MOGAS 8087
Services Transportation Aviation Fuel Prices: Prices include tax


GlobalAir.com Airport Resource Center model-print
model-print
model-print
model-print